createdAt,value
2023-02-13T00:01:19.042Z,8.43
2023-02-13T00:03:47.306Z,9.40
2023-02-13T00:06:15.234Z,9.93
2023-02-13T00:08:43.116Z,9.57
2023-02-13T00:11:11.318Z,8.15
2023-02-13T00:13:39.174Z,9.07
2023-02-13T00:16:07.302Z,7.75
2023-02-13T00:18:37.735Z,5.87
2023-02-13T00:21:11.575Z,7.65
2023-02-13T00:23:40.635Z,7.05
2023-02-13T00:26:11.539Z,5.07
2023-02-13T00:28:42.046Z,7.12
2023-02-13T00:31:21.902Z,6.70
2023-02-13T00:33:50.810Z,6.57
2023-02-13T00:36:23.401Z,7.70
2023-02-13T00:38:51.922Z,8.88
2023-02-13T00:41:21.294Z,6.22
2023-02-13T00:43:50.169Z,6.15
2023-02-13T00:46:18.717Z,7.07
2023-02-13T00:48:46.934Z,6.10
2023-02-13T00:51:14.915Z,4.32
2023-02-13T00:53:43.107Z,4.53
2023-02-13T00:56:11.122Z,6.95
2023-02-13T00:58:39.373Z,6.28
2023-02-13T01:01:07.708Z,5.87
2023-02-13T01:03:35.668Z,8.32
2023-02-13T01:06:03.711Z,11.52
2023-02-13T01:08:35.797Z,5.82
2023-02-13T01:11:04.049Z,10.93
2023-02-13T01:13:32.508Z,9.43
2023-02-13T01:16:03.796Z,11.10
2023-02-13T01:18:32.159Z,7.60
2023-02-13T01:21:20.234Z,9.82
2023-02-13T01:23:48.480Z,8.95
2023-02-13T01:26:25.026Z,8.45
2023-02-13T01:28:55.225Z,8.07
2023-02-13T01:31:23.210Z,8.38
2023-02-13T01:33:52.129Z,9.50
2023-02-13T01:36:22.575Z,8.57
2023-02-13T01:38:54.836Z,9.30
2023-02-13T01:41:26.488Z,12.70
2023-02-13T01:43:59.789Z,11.43
2023-02-13T01:46:43.570Z,10.68
2023-02-13T01:49:21.128Z,11.82
2023-02-13T01:51:55.932Z,13.52
2023-02-13T01:54:31.944Z,13.48
2023-02-13T01:57:12.776Z,15.35
2023-02-13T01:59:52.237Z,14.43
2023-02-13T02:02:21.950Z,13.88
2023-02-13T02:04:50.955Z,14.98
2023-02-13T02:07:28.178Z,12.98
2023-02-13T02:10:06.409Z,14.63
2023-02-13T02:12:51.106Z,15.20
2023-02-13T02:15:20.587Z,14.68
2023-02-13T02:17:48.425Z,11.18
2023-02-13T02:20:19.226Z,11.38
2023-02-13T02:23:23.813Z,12.57
2023-02-13T02:26:22.402Z,12.65
2023-02-13T02:28:50.509Z,11.75
2023-02-13T02:31:42.850Z,12.00
2023-02-13T02:34:42.455Z,13.23
2023-02-13T02:37:26.832Z,11.55
2023-02-13T02:40:11.441Z,12.20
2023-02-13T02:43:14.980Z,13.40
2023-02-13T02:46:19.395Z,11.90
2023-02-13T02:49:19.916Z,11.85
2023-02-13T02:51:55.372Z,11.63
2023-02-13T02:54:52.594Z,11.27
2023-02-13T02:57:47.873Z,11.60
2023-02-13T03:00:37.055Z,10.50
2023-02-13T03:03:42.906Z,9.20
2023-02-13T03:06:30.373Z,12.05
2023-02-13T03:09:23.923Z,11.27
2023-02-13T03:12:15.668Z,10.52
2023-02-13T03:14:44.726Z,11.17
2023-02-13T03:17:34.794Z,9.70
2023-02-13T03:20:39.987Z,9.60
2023-02-13T03:23:17.681Z,8.70
2023-02-13T03:26:07.883Z,7.65
2023-02-13T03:29:30.468Z,7.07
2023-02-13T03:32:26.358Z,8.50
2023-02-13T03:35:27.149Z,7.80
2023-02-13T03:38:03.564Z,7.68
2023-02-13T03:41:01.655Z,7.78
2023-02-13T03:43:50.323Z,8.68
2023-02-13T03:46:20.328Z,7.70
2023-02-13T03:49:08.238Z,8.10
2023-02-13T03:51:48.510Z,7.93
2023-02-13T03:55:02.245Z,8.07
2023-02-13T03:57:53.363Z,8.52
2023-02-13T04:00:22.675Z,7.28
2023-02-13T04:03:01.529Z,8.57
2023-02-13T04:05:34.588Z,6.45
2023-02-13T04:08:02.960Z,8.25
2023-02-13T04:10:34.143Z,7.50
2023-02-13T04:13:24.380Z,8.40
2023-02-13T04:16:00.708Z,7.78
2023-02-13T04:18:32.656Z,6.10
2023-02-13T04:21:05.796Z,8.95
2023-02-13T04:23:36.041Z,6.40
2023-02-13T04:26:09.310Z,7.60
2023-02-13T04:31:05.521Z,6.47
2023-02-13T04:33:33.401Z,6.60
2023-02-13T04:36:01.621Z,7.75
2023-02-13T04:38:32.632Z,7.50
2023-02-13T04:41:00.533Z,6.70
2023-02-13T04:43:28.755Z,9.30
2023-02-13T04:45:56.997Z,7.00
2023-02-13T04:48:24.811Z,6.85
2023-02-13T04:50:53.012Z,7.30
2023-02-13T04:53:20.935Z,7.53
2023-02-13T04:55:48.718Z,6.78
2023-02-13T04:58:16.958Z,8.95
2023-02-13T05:00:44.832Z,6.40
2023-02-13T05:03:14.084Z,5.82
2023-02-13T05:05:42.263Z,6.37
2023-02-13T05:08:11.211Z,6.07
2023-02-13T05:10:38.942Z,5.90
2023-02-13T05:13:07.232Z,6.10
2023-02-13T05:15:35.097Z,5.65
2023-02-13T05:18:02.879Z,5.32
2023-02-13T05:20:31.085Z,5.25
2023-02-13T05:23:18.545Z,4.80
2023-02-13T05:25:46.676Z,4.37
2023-02-13T05:28:36.250Z,4.90
2023-02-13T05:31:04.729Z,4.18
2023-02-13T05:33:32.616Z,5.12
2023-02-13T05:36:03.235Z,3.65
2023-02-13T05:38:31.405Z,3.50
2023-02-13T05:41:00.813Z,4.30
2023-02-13T05:43:30.619Z,3.75
2023-02-13T05:46:06.598Z,3.22
2023-02-13T05:48:34.966Z,4.12
2023-02-13T05:51:03.137Z,3.60
2023-02-13T05:53:31.066Z,4.20
2023-02-13T05:55:58.993Z,3.05
2023-02-13T05:58:27.281Z,3.17
2023-02-13T06:00:59.065Z,2.70
2023-02-13T06:03:32.667Z,2.87
2023-02-13T06:06:01.052Z,3.62
2023-02-13T06:08:29.499Z,4.03
2023-02-13T06:10:57.279Z,4.62
2023-02-13T06:13:25.150Z,3.97
2023-02-13T06:15:53.576Z,2.67
2023-02-13T06:18:21.322Z,4.05
2023-02-13T06:20:49.517Z,4.03
2023-02-13T06:23:17.735Z,3.50
2023-02-13T06:25:45.547Z,2.53
2023-02-13T06:28:13.431Z,3.17
2023-02-13T06:30:41.703Z,3.15
2023-02-13T06:33:09.547Z,3.03
2023-02-13T06:35:37.556Z,3.20
2023-02-13T06:38:05.880Z,4.57
2023-02-13T06:40:36.752Z,2.83
2023-02-13T06:43:04.836Z,2.70
2023-02-13T06:45:33.079Z,2.58
2023-02-13T06:48:00.948Z,3.00
2023-02-13T06:50:28.819Z,2.62
2023-02-13T06:52:57.114Z,2.90
2023-02-13T06:55:24.973Z,1.67
2023-02-13T06:57:53.007Z,2.20
2023-02-13T07:00:21.576Z,1.62
2023-02-13T07:02:49.509Z,2.47
2023-02-13T07:05:18.215Z,2.08
2023-02-13T07:07:47.001Z,2.12
2023-02-13T07:10:15.524Z,2.55
2023-02-13T07:12:44.616Z,2.12
2023-02-13T07:15:14.128Z,3.05
2023-02-13T07:17:42.329Z,2.50
2023-02-13T07:20:10.650Z,2.20
2023-02-13T07:25:24.641Z,2.53
2023-02-13T07:27:52.893Z,3.50
2023-02-13T07:30:20.943Z,2.37
2023-02-13T07:32:52.353Z,2.50
2023-02-13T07:35:20.633Z,2.65
2023-02-13T07:37:48.633Z,3.37
2023-02-13T07:40:16.464Z,2.90
2023-02-13T07:42:44.797Z,1.70
2023-02-13T07:45:12.708Z,2.60
2023-02-13T07:47:41.555Z,1.73
2023-02-13T07:50:11.617Z,1.10
2023-02-13T07:52:39.719Z,3.05
2023-02-13T07:55:08.562Z,2.17
2023-02-13T07:57:36.859Z,2.55
2023-02-13T08:00:05.453Z,1.95
2023-02-13T08:02:40.401Z,1.65
2023-02-13T08:05:11.991Z,2.17
2023-02-13T08:07:41.380Z,2.20
2023-02-13T08:10:31.394Z,2.35
2023-02-13T08:12:59.592Z,2.62
2023-02-13T08:15:28.025Z,3.33
2023-02-13T08:17:55.964Z,0.90
2023-02-13T08:20:24.474Z,1.83
2023-02-13T08:22:52.692Z,1.92
2023-02-13T08:25:21.159Z,1.95
2023-02-13T08:27:48.924Z,1.80
2023-02-13T08:30:17.392Z,1.73
2023-02-13T08:32:55.078Z,2.20
2023-02-13T08:35:27.068Z,1.90
2023-02-13T08:37:54.880Z,2.87
2023-02-13T08:40:25.406Z,2.30
2023-02-13T08:42:59.447Z,2.70
2023-02-13T08:45:27.783Z,2.10
2023-02-13T08:47:59.935Z,1.67
2023-02-13T08:50:28.545Z,2.08
2023-02-13T08:52:56.434Z,4.15
2023-02-13T08:55:30.196Z,2.00
2023-02-13T08:58:02.979Z,3.03
2023-02-13T09:00:31.222Z,2.80
2023-02-13T09:03:03.761Z,2.80
2023-02-13T09:05:34.606Z,1.92
2023-02-13T09:08:04.321Z,2.70
2023-02-13T09:10:33.305Z,2.10
2023-02-13T09:13:01.707Z,2.67
2023-02-13T09:15:30.490Z,2.65
2023-02-13T09:17:58.521Z,2.78
2023-02-13T09:20:26.441Z,1.87
2023-02-13T09:22:56.101Z,3.05
2023-02-13T09:25:24.053Z,3.10
2023-02-13T09:27:52.066Z,2.50
2023-02-13T09:30:24.364Z,3.67
2023-02-13T09:32:53.601Z,3.22
2023-02-13T09:35:23.484Z,2.42
2023-02-13T09:37:52.009Z,3.20
2023-02-13T09:40:33.367Z,3.58
2023-02-13T09:43:32.834Z,2.80
2023-02-13T09:46:09.202Z,3.60
2023-02-13T09:48:40.990Z,3.35
2023-02-13T09:51:17.702Z,3.03
2023-02-13T09:54:07.835Z,4.50
2023-02-13T09:56:47.221Z,3.97
2023-02-13T09:59:27.748Z,3.60
2023-02-13T10:02:01.466Z,3.55
2023-02-13T10:04:51.093Z,3.00
2023-02-13T10:07:37.695Z,2.78
2023-02-13T10:10:31.901Z,2.40
2023-02-13T10:13:44.528Z,3.12
2023-02-13T10:16:23.049Z,3.17
2023-02-13T10:19:23.734Z,3.05
2023-02-13T10:22:14.104Z,2.40
2023-02-13T10:24:50.111Z,2.17
2023-02-13T10:27:43.641Z,2.92
2023-02-13T10:30:23.327Z,2.60
2023-02-13T10:33:19.948Z,3.83
2023-02-13T10:36:18.829Z,4.00
2023-02-13T10:38:58.793Z,3.37
2023-02-13T10:41:46.203Z,3.20
2023-02-13T10:44:34.094Z,3.70
2023-02-13T10:47:21.214Z,4.03
2023-02-13T10:50:10.730Z,4.28
2023-02-13T10:52:58.877Z,5.30
2023-02-13T10:55:48.372Z,3.28
2023-02-13T10:58:21.307Z,3.42
2023-02-13T11:01:13.465Z,4.15
2023-02-13T11:03:41.569Z,3.40
2023-02-13T11:06:15.487Z,3.90
2023-02-13T11:08:47.682Z,3.20
2023-02-13T11:11:40.935Z,3.97
2023-02-13T11:14:12.149Z,5.28
2023-02-13T11:16:56.411Z,5.78
2023-02-13T11:19:51.910Z,4.53
2023-02-13T11:22:36.360Z,2.90
2023-02-13T11:25:19.516Z,4.47
2023-02-13T11:27:51.243Z,3.85
2023-02-13T11:30:37.822Z,3.67
2023-02-13T11:33:21.806Z,3.62
2023-02-13T11:35:50.177Z,1.87
2023-02-13T11:38:21.338Z,1.27
2023-02-13T11:41:09.007Z,2.20
2023-02-13T11:43:49.627Z,2.83
2023-02-13T11:46:26.006Z,3.35
2023-02-13T11:49:15.714Z,2.60
2023-02-13T11:51:47.254Z,2.87
2023-02-13T11:54:35.845Z,3.87
2023-02-13T11:57:28.172Z,3.92
2023-02-13T11:59:57.334Z,4.00
2023-02-13T12:02:47.935Z,2.55
2023-02-13T12:05:25.437Z,3.92
2023-02-13T12:07:59.312Z,3.67
2023-02-13T12:10:33.765Z,4.32
2023-02-13T12:13:29.508Z,4.85
2023-02-13T12:16:05.784Z,4.25
2023-02-13T12:18:44.759Z,4.15
2023-02-13T12:21:35.484Z,7.68
2023-02-13T12:24:09.801Z,7.95
2023-02-13T12:27:03.687Z,5.03
2023-02-13T12:30:13.066Z,5.60
2023-02-13T12:33:03.506Z,5.82
2023-02-13T12:35:34.968Z,3.80
2023-02-13T12:38:08.798Z,4.28
2023-02-13T12:41:02.765Z,4.35
2023-02-13T12:43:49.824Z,3.80
2023-02-13T12:46:46.349Z,3.53
2023-02-13T12:49:37.069Z,2.42
2023-02-13T12:52:23.421Z,3.80
2023-02-13T12:55:06.778Z,3.15
2023-02-13T12:57:51.872Z,3.12
2023-02-13T13:00:50.247Z,5.10
2023-02-13T13:03:57.770Z,3.03
2023-02-13T13:06:47.135Z,3.05
2023-02-13T13:09:35.615Z,2.03
2023-02-13T13:12:42.566Z,3.08
2023-02-13T13:15:41.263Z,2.90
2023-02-13T13:18:43.959Z,3.47
2023-02-13T13:21:32.125Z,3.45
2023-02-13T13:24:01.357Z,2.05
2023-02-13T13:26:46.751Z,2.35
2023-02-13T13:29:21.147Z,4.30
2023-02-13T13:32:01.474Z,5.07
2023-02-13T13:34:36.011Z,3.45
2023-02-13T13:37:23.340Z,2.40
2023-02-13T13:40:29.696Z,3.47
2023-02-13T13:43:03.451Z,3.62
2023-02-13T13:46:04.088Z,3.65
2023-02-13T13:48:52.190Z,2.42
2023-02-13T13:51:20.973Z,4.00
2023-02-13T13:54:01.902Z,3.08
2023-02-13T13:57:09.093Z,5.00
2023-02-13T13:59:40.086Z,3.42
2023-02-13T14:02:20.307Z,4.45
2023-02-13T14:05:19.406Z,3.28
2023-02-13T14:07:53.288Z,3.58
2023-02-13T14:10:21.529Z,4.05
2023-02-13T14:12:51.201Z,3.42
2023-02-13T14:15:34.599Z,4.00
2023-02-13T14:18:08.249Z,3.53
2023-02-13T14:20:50.765Z,4.05
2023-02-13T14:24:00.937Z,3.80
2023-02-13T14:27:05.116Z,3.90
2023-02-13T14:29:34.842Z,3.78
2023-02-13T14:32:16.022Z,3.90
2023-02-13T14:34:57.434Z,3.60
2023-02-13T14:37:36.051Z,2.85
2023-02-13T14:40:20.699Z,3.83
2023-02-13T14:43:07.987Z,3.78
2023-02-13T14:45:48.631Z,3.70
2023-02-13T14:48:16.572Z,3.35
2023-02-13T14:50:49.705Z,3.62
2023-02-13T14:53:32.377Z,3.78
2023-02-13T14:56:12.644Z,3.25
2023-02-13T14:58:59.910Z,3.53
2023-02-13T15:01:36.442Z,3.53
2023-02-13T15:04:13.111Z,4.03
2023-02-13T15:06:49.443Z,4.75
2023-02-13T15:09:33.518Z,2.87
2023-02-13T15:12:02.281Z,3.53
2023-02-13T15:14:36.078Z,4.55
2023-02-13T15:17:10.858Z,4.10
2023-02-13T15:19:45.228Z,4.95
2023-02-13T15:22:30.385Z,3.92
2023-02-13T15:24:59.745Z,3.75
2023-02-13T15:27:34.300Z,4.45
2023-02-13T15:30:04.858Z,5.62
2023-02-13T15:32:37.359Z,5.50
2023-02-13T15:35:28.924Z,3.83
2023-02-13T15:37:58.007Z,4.80
2023-02-13T15:40:32.710Z,5.47
2023-02-13T15:43:02.496Z,3.97
2023-02-13T15:45:31.269Z,3.90
2023-02-13T15:47:59.574Z,3.30
2023-02-13T15:50:32.822Z,3.03
2023-02-13T15:55:33.582Z,3.25
2023-02-13T15:58:03.532Z,3.30
2023-02-13T16:00:35.606Z,3.85
2023-02-13T16:03:14.555Z,4.35
2023-02-13T16:05:43.029Z,3.95
2023-02-13T16:08:45.616Z,3.55
2023-02-13T16:11:39.194Z,3.62
2023-02-13T16:14:17.865Z,4.45
2023-02-13T16:17:18.448Z,4.35
2023-02-13T16:19:56.839Z,3.80
2023-02-13T16:22:33.501Z,4.00
2023-02-13T16:25:38.777Z,4.87
2023-02-13T16:28:26.024Z,4.37
2023-02-13T16:31:04.531Z,4.55
2023-02-13T16:33:38.479Z,4.62
2023-02-13T16:36:09.632Z,3.40
2023-02-13T16:38:49.083Z,4.60
2023-02-13T16:41:22.356Z,3.65
2023-02-13T16:46:31.832Z,4.62
2023-02-13T16:49:02.430Z,3.75
2023-02-13T16:51:30.681Z,4.72
2023-02-13T16:54:05.330Z,3.65
2023-02-13T16:56:50.873Z,4.43
2023-02-13T16:59:29.504Z,4.00
2023-02-13T17:02:19.745Z,3.60
2023-02-13T17:04:51.492Z,4.20
2023-02-13T17:07:30.465Z,4.70
2023-02-13T17:10:01.712Z,3.45
2023-02-13T17:12:36.047Z,4.90
2023-02-13T17:15:05.887Z,4.25
2023-02-13T17:17:34.388Z,3.83
2023-02-13T17:20:04.526Z,3.12
2023-02-13T17:22:36.695Z,3.35
2023-02-13T17:25:08.883Z,4.18
2023-02-13T17:27:38.252Z,3.45
2023-02-13T17:30:07.410Z,3.67
2023-02-13T17:33:08.192Z,3.75
2023-02-13T17:35:36.851Z,3.90
2023-02-13T17:38:06.626Z,6.00
2023-02-13T17:40:34.793Z,9.35
2023-02-13T17:43:03.656Z,13.43
2023-02-13T17:45:34.340Z,5.03
2023-02-13T17:48:02.179Z,10.55
2023-02-13T17:50:32.260Z,7.53
2023-02-13T17:53:04.516Z,4.30
2023-02-13T17:55:34.199Z,4.78
2023-02-13T17:58:02.857Z,4.25
2023-02-13T18:00:33.235Z,3.80
2023-02-13T18:03:10.660Z,3.53
2023-02-13T18:05:40.420Z,4.62
2023-02-13T18:08:09.450Z,5.50
2023-02-13T18:10:38.161Z,4.47
2023-02-13T18:13:06.257Z,4.70
2023-02-13T18:15:44.355Z,6.00
2023-02-13T18:18:16.982Z,9.48
2023-02-13T18:20:45.915Z,7.00
2023-02-13T18:23:14.495Z,7.30
2023-02-13T18:25:42.561Z,19.35
2023-02-13T18:28:11.107Z,10.02
2023-02-13T18:30:43.955Z,13.38
2023-02-13T18:33:12.790Z,9.30
2023-02-13T18:35:41.122Z,9.23
2023-02-13T18:38:09.266Z,7.78
2023-02-13T18:40:37.912Z,7.35
2023-02-13T18:43:06.149Z,6.43
2023-02-13T18:45:34.539Z,4.85
2023-02-13T18:48:03.296Z,5.20
2023-02-13T18:50:31.229Z,5.10
2023-02-13T18:52:59.494Z,4.87
2023-02-13T18:55:27.944Z,4.95
2023-02-13T18:57:56.814Z,8.57
2023-02-13T19:00:26.145Z,9.90
2023-02-13T19:02:55.100Z,10.15
2023-02-13T19:05:23.231Z,9.25
2023-02-13T19:07:51.495Z,5.95
2023-02-13T19:10:20.256Z,5.55
2023-02-13T19:12:48.599Z,4.65
2023-02-13T19:15:16.910Z,4.32
2023-02-13T19:17:46.104Z,4.68
2023-02-13T19:20:16.619Z,3.87
2023-02-13T19:22:45.524Z,3.58
2023-02-13T19:25:13.467Z,4.10
2023-02-13T19:27:41.408Z,3.35
2023-02-13T19:30:11.063Z,4.50
2023-02-13T19:32:39.156Z,5.93
2023-02-13T19:35:07.596Z,8.07
2023-02-13T19:37:43.411Z,5.03
2023-02-13T19:40:14.903Z,5.82
2023-02-13T19:42:43.352Z,4.95
2023-02-13T19:45:11.693Z,5.35
2023-02-13T19:47:39.789Z,6.43
2023-02-13T19:50:10.165Z,7.55
2023-02-13T19:52:38.377Z,5.40
2023-02-13T19:55:06.562Z,6.57
2023-02-13T19:57:34.877Z,7.28
2023-02-13T20:00:05.011Z,6.18
2023-02-13T20:02:40.556Z,6.12
2023-02-13T20:05:12.133Z,7.10
2023-02-13T20:07:40.022Z,5.32
2023-02-13T20:10:12.406Z,6.00
2023-02-13T20:12:40.229Z,7.93
2023-02-13T20:15:08.928Z,5.80
2023-02-13T20:17:38.314Z,7.32
2023-02-13T20:20:07.101Z,6.82
2023-02-13T20:22:35.422Z,6.87
2023-02-13T20:25:03.231Z,7.65
2023-02-13T20:27:31.430Z,6.75
2023-02-13T20:30:06.628Z,6.45
2023-02-13T20:32:35.959Z,5.85
2023-02-13T20:35:04.593Z,6.00
2023-02-13T20:37:33.178Z,5.35
2023-02-13T20:40:01.740Z,5.20
2023-02-13T20:42:33.935Z,5.30
2023-02-13T20:45:02.365Z,4.30
2023-02-13T20:47:31.661Z,4.90
2023-02-13T20:49:59.588Z,5.65
2023-02-13T20:52:27.818Z,4.45
2023-02-13T20:54:56.093Z,5.37
2023-02-13T20:57:24.021Z,6.90
2023-02-13T20:59:51.907Z,4.35
2023-02-13T21:02:21.160Z,5.07
2023-02-13T21:04:49.236Z,4.82
2023-02-13T21:07:18.092Z,4.20
2023-02-13T21:09:46.364Z,5.15
2023-02-13T21:12:14.868Z,5.18
2023-02-13T21:14:42.854Z,5.12
2023-02-13T21:17:11.173Z,5.80
2023-02-13T21:19:39.266Z,6.37
2023-02-13T21:22:13.329Z,6.03
2023-02-13T21:24:43.112Z,7.22
2023-02-13T21:27:11.327Z,7.12
2023-02-13T21:29:39.389Z,7.80
2023-02-13T21:32:07.703Z,9.40
2023-02-13T21:34:35.772Z,10.15
2023-02-13T21:37:03.681Z,10.07
2023-02-13T21:39:31.981Z,12.98
2023-02-13T21:41:59.839Z,11.68
2023-02-13T21:47:13.545Z,12.82
2023-02-13T21:49:41.358Z,13.23
2023-02-13T21:52:09.215Z,10.38
2023-02-13T21:54:37.614Z,15.30
2023-02-13T21:57:05.386Z,17.25
2023-02-13T21:59:33.219Z,12.15
2023-02-13T22:02:03.063Z,10.40
2023-02-13T22:04:31.899Z,11.77
2023-02-13T22:06:59.756Z,9.90
2023-02-13T22:09:27.944Z,10.90
2023-02-13T22:11:56.227Z,11.27
2023-02-13T22:14:24.051Z,7.90
2023-02-13T22:16:52.663Z,8.73
2023-02-13T22:19:21.121Z,11.40
2023-02-13T22:21:49.208Z,9.23
2023-02-13T22:27:03.707Z,7.18
2023-02-13T22:29:31.505Z,8.05
2023-02-13T22:31:59.385Z,6.35
2023-02-13T22:34:27.597Z,6.60
2023-02-13T22:39:41.610Z,7.20
2023-02-13T22:42:09.375Z,5.32
2023-02-13T22:44:37.214Z,6.00
2023-02-13T22:47:07.262Z,6.62
2023-02-13T22:49:36.245Z,4.82
2023-02-13T22:52:04.167Z,7.15
2023-02-13T22:54:32.323Z,5.65
2023-02-13T22:57:00.110Z,6.40
2023-02-13T22:59:28.076Z,7.78
2023-02-13T23:01:56.569Z,4.50
2023-02-13T23:04:24.590Z,4.93
2023-02-13T23:06:52.340Z,4.43
2023-02-13T23:09:20.658Z,5.15
2023-02-13T23:12:07.212Z,4.82
2023-02-13T23:14:35.301Z,3.30
2023-02-13T23:17:21.491Z,5.62
2023-02-13T23:19:49.666Z,4.65
2023-02-13T23:22:17.576Z,5.05
2023-02-13T23:24:45.457Z,5.78
2023-02-13T23:27:13.739Z,5.28
2023-02-13T23:29:41.504Z,4.25
2023-02-13T23:32:09.371Z,6.07
2023-02-13T23:34:37.891Z,3.75
2023-02-13T23:37:05.607Z,4.75
2023-02-13T23:39:33.509Z,5.70
2023-02-13T23:42:01.685Z,3.28
2023-02-13T23:44:29.557Z,4.53
2023-02-13T23:46:57.574Z,4.62
2023-02-13T23:49:25.786Z,3.12
2023-02-13T23:51:53.716Z,3.70
2023-02-13T23:54:26.846Z,2.87
2023-02-13T23:56:55.556Z,3.22
2023-02-13T23:59:24.417Z,3.47
